TFM - Tactical Decision Aid (Experimental) INFO Settings
ID: Runway Winds: CIG/VIS Threshold: METAR Board: Map:

KCLT - Charlotte-Douglas Intl

Updated at: 1111 UTC 24 Jan 2017
Latest TAF at: 1029 UTC 24 Jan 2017

TAF Board

Time1052Z24/12Z24/13Z24/14Z24/15Z24/16Z24/17Z24/18Z24/19Z24/20Z24/21Z24/22Z24/23Z25/00Z
TypeOBSPRVLPRVLPRVLPRVLPRVLPRVLPRVLPRVLPRVLPRVLPRVLPRVLPRVL
VIS10>6>6>6>6>6>6>6>6>6>6>6>6>6
CIG----------------------------
CoverCLRSCTSCTSCTSCTSCTSCTSCTSCTSKCSKCSKCSKCSKC
FltCatVFRVFRVFRVFRVFRVFRVFRVFRVFRVFRVFRVFRVFRVFR
WX----------------------------
WDir290290290290290300300300300290290290290290
WSpd555551010101077777
WGst----------18181818----------
TAF
KCLT 241029Z 2410/2506 29005KT P6SM SCT250
  FM241600 30010G18KT P6SM SCT250
  FM242000 29007KT P6SM SKC


METAR
KCLT 241052Z 29005KT 10SM CLR 07/04 A2957 RMK AO2 SLP012 T00670044
KCLT 240952Z 27005KT 9SM CLR 06/04 A2957 RMK AO2 SLP011 T00560044

TAF/METAR Board Legend

Potential Impact
  None Marginal Slight Moderate High
Visibility (sm) >5 3≤X≤5 1≤X<3 0.5≤X<1 <0.5
Ceiling (100 ft) >30 10≤X≤30 4≤X<10 2≤X<4 <2
Wind Speed (kt) <10 10≤X<20 20≤X<30 ≥30
Wind Gust (kt) <15 15≤X<25 25≤X<35 ≥35
Weather No Wx Reported VCTS -TS,-FZRA TS,FZRA +TS,+FZRA



Page loaded:  11:11 UTC  |   03:11 AM Pacific  |   04:11 AM Mountain  |   05:11 AM Central  |   06:11 AM Eastern

 

ADVISORIES

FORECASTS

FORECASTS

OBSERVATIONS

USER TOOLS

ABOUT US